To NAV CANADA Home Page Login to a new session Search on AWWS site Feedback and Comments Disclaimer Vers la page française équivalente Tips FAQ What's new on the site To the Forecasts and Observations / NOTAM section To "File a Flight Plan" website Publications and other links Update of the User's profile FIC Telephone Numbers My Weather Data Folder Route Weather Data Regional Weather Data Local Weather Data To the Forecasts and Observations / NOTAM section
Request Generated 02/23/2017 at 20:46:45 UTC . Weather information available at that time is displayed.

METAR/TAF

YARMOUTH/NS    

METAR CYQI 232000Z 17009KT 1/4SM -DZ FG VV002 04/04 A2985 RMK FG8
SLP113=
SPECI CYQI 231930Z 16008KT 1/2SM -DZ FG VV002 04/04 A2986 RMK FG8
SLP115=
METAR CYQI 231900Z 17008KT 1/2SM FG VV002 04/04 A2987 RMK FG8 SLP120=
METAR CYQI 231800Z 18011G16KT 1/2SM FG VV002 03/03 A2988 RMK FG8
SLP123=

TAF CYQI 231738Z 2318/2406 18012G22KT 1/2SM FG VV002 TEMPO 2318/2324
1SM BR OVC004
BECMG 2400/2402 22012G22KT
RMK NXT FCST BY 240000Z=
Your time UTC time
Weather data provided by Environment Canada and NAV CANADA